Terminal Aerodrome Forecast
Issued by NWS

Home | Current Version | Previous Version | Text Only | Print | Product List | Glossary On
Versions: 1 2 3 4 5 6 7 8 9 10 11 12
000
FTUS41 KLWX 301100
TAFMTN
TAF
KMTN 301130Z 3012/3112 VRB03KT P6SM FEW250
     FM301700 19005KT P6SM BKN090
     FM302000 17008KT P6SM SCT090
     FM310300 15007KT P6SM BKN050
     FM310800 VRB03KT P6SM SCT090=

USA.gov is the U.S. government's official web portal to all federal, state and local government web resources and services.